sensor_id;sensor_type;location;lat;lon;timestamp;pressure;altitude;pressure_sealevel;temperature;humidity
61287;BME280;56412;53.148;8.204;2022-07-10T00:02:14;102446.84;;;17.23;52.94
61287;BME280;56412;53.148;8.204;2022-07-10T00:04:39;102445.22;;;17.36;52.46
61287;BME280;56412;53.148;8.204;2022-07-10T00:07:04;102448.78;;;17.49;52.41
61287;BME280;56412;53.148;8.204;2022-07-10T00:09:31;102453.53;;;17.43;52.27
61287;BME280;56412;53.148;8.204;2022-07-10T00:11:56;102440.94;;;17.64;52.17
61287;BME280;56412;53.148;8.204;2022-07-10T00:14:21;102445.47;;;17.90;51.10
61287;BME280;56412;53.148;8.204;2022-07-10T00:16:47;102442.63;;;17.65;52.08
61287;BME280;56412;53.148;8.204;2022-07-10T00:19:12;102449.72;;;17.48;52.68
61287;BME280;56412;53.148;8.204;2022-07-10T00:21:37;102446.66;;;17.56;52.31
61287;BME280;56412;53.148;8.204;2022-07-10T00:24:03;102450.09;;;17.12;53.26
61287;BME280;56412;53.148;8.204;2022-07-10T00:26:29;102444.63;;;17.31;52.92
61287;BME280;56412;53.148;8.204;2022-07-10T00:28:54;102448.63;;;16.92;54.07
61287;BME280;56412;53.148;8.204;2022-07-10T00:31:20;102445.72;;;16.97;53.89
61287;BME280;56412;53.148;8.204;2022-07-10T00:33:45;102449.56;;;17.66;51.77
61287;BME280;56412;53.148;8.204;2022-07-10T00:36:11;102442.50;;;17.52;52.04
61287;BME280;56412;53.148;8.204;2022-07-10T00:38:36;102448.00;;;17.33;52.39
61287;BME280;56412;53.148;8.204;2022-07-10T00:41:01;102434.47;;;17.11;53.72
61287;BME280;56412;53.148;8.204;2022-07-10T00:43:26;102441.19;;;17.00;53.72
61287;BME280;56412;53.148;8.204;2022-07-10T00:45:52;102440.06;;;17.05;53.70
61287;BME280;56412;53.148;8.204;2022-07-10T00:48:17;102444.63;;;17.31;52.87
61287;BME280;56412;53.148;8.204;2022-07-10T00:50:42;102434.00;;;17.63;51.80
61287;BME280;56412;53.148;8.204;2022-07-10T00:53:10;102431.53;;;17.31;52.57
61287;BME280;56412;53.148;8.204;2022-07-10T00:55:37;102418.59;;;17.14;53.29
61287;BME280;56412;53.148;8.204;2022-07-10T00:58:05;102426.03;;;17.06;53.61
61287;BME280;56412;53.148;8.204;2022-07-10T01:00:31;102433.56;;;17.26;52.22
61287;BME280;56412;53.148;8.204;2022-07-10T01:02:58;102416.19;;;17.25;52.75
61287;BME280;56412;53.148;8.204;2022-07-10T01:05:23;102424.84;;;16.81;54.24
61287;BME280;56412;53.148;8.204;2022-07-10T01:07:49;102414.69;;;17.21;52.75
61287;BME280;56412;53.148;8.204;2022-07-10T01:10:14;102403.41;;;17.49;52.32
61287;BME280;56412;53.148;8.204;2022-07-10T01:12:39;102394.44;;;17.09;53.60
61287;BME280;56412;53.148;8.204;2022-07-10T01:15:05;102389.84;;;16.98;53.69
61287;BME280;56412;53.148;8.204;2022-07-10T01:17:31;102387.44;;;17.23;52.97
61287;BME280;56412;53.148;8.204;2022-07-10T01:19:57;102398.13;;;16.90;53.80
61287;BME280;56412;53.148;8.204;2022-07-10T01:22:22;102405.00;;;17.07;53.13
61287;BME280;56412;53.148;8.204;2022-07-10T01:24:47;102401.69;;;16.73;54.34
61287;BME280;56412;53.148;8.204;2022-07-10T01:27:13;102406.53;;;16.65;54.64
61287;BME280;56412;53.148;8.204;2022-07-10T01:29:38;102403.56;;;16.55;54.90
61287;BME280;56412;53.148;8.204;2022-07-10T01:32:04;102401.09;;;16.84;54.13
61287;BME280;56412;53.148;8.204;2022-07-10T01:34:29;102401.53;;;16.76;54.55
61287;BME280;56412;53.148;8.204;2022-07-10T01:36:55;102393.66;;;16.30;55.86
61287;BME280;56412;53.148;8.204;2022-07-10T01:39:20;102398.69;;;16.49;54.92
61287;BME280;56412;53.148;8.204;2022-07-10T01:41:46;102397.78;;;16.19;56.46
61287;BME280;56412;53.148;8.204;2022-07-10T01:44:11;102402.88;;;16.84;54.62
61287;BME280;56412;53.148;8.204;2022-07-10T01:46:46;102399.41;;;16.67;54.55
61287;BME280;56412;53.148;8.204;2022-07-10T01:49:13;102392.00;;;16.44;55.85
61287;BME280;56412;53.148;8.204;2022-07-10T01:51:38;102387.66;;;16.44;55.98
61287;BME280;56412;53.148;8.204;2022-07-10T01:54:04;102390.53;;;16.70;55.35
61287;BME280;56412;53.148;8.204;2022-07-10T01:56:29;102389.19;;;16.94;54.32
61287;BME280;56412;53.148;8.204;2022-07-10T01:58:54;102384.28;;;16.88;54.28
61287;BME280;56412;53.148;8.204;2022-07-10T02:01:19;102381.53;;;17.06;53.54
61287;BME280;56412;53.148;8.204;2022-07-10T02:03:45;102379.28;;;16.99;53.81
61287;BME280;56412;53.148;8.204;2022-07-10T02:06:29;102379.75;;;16.76;54.25
61287;BME280;56412;53.148;8.204;2022-07-10T02:08:54;102368.47;;;16.60;54.44
61287;BME280;56412;53.148;8.204;2022-07-10T02:11:20;102369.19;;;16.16;56.00
61287;BME280;56412;53.148;8.204;2022-07-10T02:13:45;102377.78;;;15.86;57.27
61287;BME280;56412;53.148;8.204;2022-07-10T02:16:10;102379.66;;;16.16;55.75
61287;BME280;56412;53.148;8.204;2022-07-10T02:18:36;102378.78;;;15.99;56.14
61287;BME280;56412;53.148;8.204;2022-07-10T02:21:01;102378.03;;;16.29;55.38
61287;BME280;56412;53.148;8.204;2022-07-10T02:23:27;102382.81;;;16.52;54.70
61287;BME280;56412;53.148;8.204;2022-07-10T02:25:53;102382.47;;;16.58;54.27
61287;BME280;56412;53.148;8.204;2022-07-10T02:28:18;102374.94;;;16.68;54.24
61287;BME280;56412;53.148;8.204;2022-07-10T02:30:43;102377.81;;;16.64;54.23
61287;BME280;56412;53.148;8.204;2022-07-10T02:33:09;102376.56;;;16.71;54.10
61287;BME280;56412;53.148;8.204;2022-07-10T02:35:34;102370.44;;;16.56;54.83
61287;BME280;56412;53.148;8.204;2022-07-10T02:37:59;102373.84;;;16.72;54.16
61287;BME280;56412;53.148;8.204;2022-07-10T02:40:25;102369.47;;;16.57;54.23
61287;BME280;56412;53.148;8.204;2022-07-10T02:42:50;102375.41;;;16.45;54.68
61287;BME280;56412;53.148;8.204;2022-07-10T02:45:16;102371.50;;;16.68;53.98
61287;BME280;56412;53.148;8.204;2022-07-10T02:47:41;102362.81;;;16.51;54.30
61287;BME280;56412;53.148;8.204;2022-07-10T02:50:07;102362.63;;;16.86;53.21
61287;BME280;56412;53.148;8.204;2022-07-10T02:52:32;102371.13;;;16.90;53.45
61287;BME280;56412;53.148;8.204;2022-07-10T02:54:58;102367.50;;;16.92;53.12
61287;BME280;56412;53.148;8.204;2022-07-10T02:57:23;102371.66;;;16.65;54.28
61287;BME280;56412;53.148;8.204;2022-07-10T02:59:49;102370.09;;;16.92;53.02
61287;BME280;56412;53.148;8.204;2022-07-10T03:02:14;102372.50;;;16.65;53.56
61287;BME280;56412;53.148;8.204;2022-07-10T03:04:40;102374.44;;;17.08;52.45
61287;BME280;56412;53.148;8.204;2022-07-10T03:07:05;102370.25;;;16.43;54.25
61287;BME280;56412;53.148;8.204;2022-07-10T03:09:31;102365.06;;;16.89;52.97
61287;BME280;56412;53.148;8.204;2022-07-10T03:11:56;102364.56;;;16.67;53.48
61287;BME280;56412;53.148;8.204;2022-07-10T03:14:21;102363.97;;;17.08;52.41
61287;BME280;56412;53.148;8.204;2022-07-10T03:16:46;102367.38;;;16.79;52.54
61287;BME280;56412;53.148;8.204;2022-07-10T03:19:12;102365.53;;;16.96;52.32
61287;BME280;56412;53.148;8.204;2022-07-10T03:21:37;102366.59;;;16.62;52.82
61287;BME280;56412;53.148;8.204;2022-07-10T03:24:03;102368.19;;;16.64;52.90
61287;BME280;56412;53.148;8.204;2022-07-10T03:26:28;102373.19;;;16.69;52.69
61287;BME280;56412;53.148;8.204;2022-07-10T03:28:54;102369.44;;;16.73;52.88
61287;BME280;56412;53.148;8.204;2022-07-10T03:31:20;102361.50;;;16.74;52.57
61287;BME280;56412;53.148;8.204;2022-07-10T03:33:45;102355.69;;;16.69;52.52
61287;BME280;56412;53.148;8.204;2022-07-10T03:36:10;102355.81;;;16.52;53.42
61287;BME280;56412;53.148;8.204;2022-07-10T03:38:35;102366.59;;;16.77;52.83
61287;BME280;56412;53.148;8.204;2022-07-10T03:41:01;102365.13;;;16.88;52.69
61287;BME280;56412;53.148;8.204;2022-07-10T03:43:26;102363.03;;;16.78;52.54
61287;BME280;56412;53.148;8.204;2022-07-10T03:45:51;102359.44;;;16.65;53.06
61287;BME280;56412;53.148;8.204;2022-07-10T03:48:17;102362.00;;;16.51;53.31
61287;BME280;56412;53.148;8.204;2022-07-10T03:50:42;102361.31;;;16.47;53.92
61287;BME280;56412;53.148;8.204;2022-07-10T03:53:07;102362.00;;;16.51;53.42
61287;BME280;56412;53.148;8.204;2022-07-10T03:55:32;102354.31;;;16.48;53.73
61287;BME280;56412;53.148;8.204;2022-07-10T03:57:58;102358.28;;;16.39;53.92
61287;BME280;56412;53.148;8.204;2022-07-10T04:00:27;102360.06;;;16.39;54.26
61287;BME280;56412;53.148;8.204;2022-07-10T04:02:57;102359.53;;;16.32;54.06
61287;BME280;56412;53.148;8.204;2022-07-10T04:05:23;102359.53;;;16.32;54.72
61287;BME280;56412;53.148;8.204;2022-07-10T04:07:48;102355.19;;;16.32;55.04
61287;BME280;56412;53.148;8.204;2022-07-10T04:10:14;102353.59;;;16.76;53.89
61287;BME280;56412;53.148;8.204;2022-07-10T04:12:39;102359.81;;;16.89;53.62
61287;BME280;56412;53.148;8.204;2022-07-10T04:15:05;102361.31;;;16.93;53.13
61287;BME280;56412;53.148;8.204;2022-07-10T04:17:30;102358.66;;;16.79;53.96
61287;BME280;56412;53.148;8.204;2022-07-10T04:19:57;102360.69;;;16.58;54.63
61287;BME280;56412;53.148;8.204;2022-07-10T04:22:23;102358.56;;;17.25;53.04
61287;BME280;56412;53.148;8.204;2022-07-10T04:24:49;102355.22;;;17.66;52.08
61287;BME280;56412;53.148;8.204;2022-07-10T04:27:15;102354.84;;;17.43;52.59
61287;BME280;56412;53.148;8.204;2022-07-10T04:29:41;102354.06;;;17.70;51.69
61287;BME280;56412;53.148;8.204;2022-07-10T04:32:07;102359.38;;;17.11;53.22
61287;BME280;56412;53.148;8.204;2022-07-10T04:34:33;102357.91;;;17.64;52.19
61287;BME280;56412;53.148;8.204;2022-07-10T04:36:58;102361.66;;;17.75;51.39
61287;BME280;56412;53.148;8.204;2022-07-10T04:39:23;102358.59;;;18.51;49.98
61287;BME280;56412;53.148;8.204;2022-07-10T04:41:49;102361.63;;;18.45;49.39
61287;BME280;56412;53.148;8.204;2022-07-10T04:44:14;102365.34;;;18.28;50.32
61287;BME280;56412;53.148;8.204;2022-07-10T04:46:40;102356.31;;;18.05;50.45
61287;BME280;56412;53.148;8.204;2022-07-10T04:49:05;102354.47;;;17.78;51.30
61287;BME280;56412;53.148;8.204;2022-07-10T04:51:30;102355.22;;;17.95;50.87
61287;BME280;56412;53.148;8.204;2022-07-10T04:53:56;102345.13;;;17.60;51.82
61287;BME280;56412;53.148;8.204;2022-07-10T04:56:21;102355.59;;;17.74;51.56
61287;BME280;56412;53.148;8.204;2022-07-10T04:58:46;102354.66;;;17.89;51.14
61287;BME280;56412;53.148;8.204;2022-07-10T05:01:13;102349.66;;;17.70;51.79
61287;BME280;56412;53.148;8.204;2022-07-10T05:03:38;102350.72;;;17.25;53.20
61287;BME280;56412;53.148;8.204;2022-07-10T05:06:03;102352.28;;;17.70;52.01
61287;BME280;56412;53.148;8.204;2022-07-10T05:08:29;102354.25;;;18.10;50.96
61287;BME280;56412;53.148;8.204;2022-07-10T05:10:54;102350.72;;;17.82;51.54
61287;BME280;56412;53.148;8.204;2022-07-10T05:13:19;102354.25;;;18.10;51.07
61287;BME280;56412;53.148;8.204;2022-07-10T05:15:45;102350.19;;;18.46;50.56
61287;BME280;56412;53.148;8.204;2022-07-10T05:18:12;102358.09;;;18.04;51.39
61287;BME280;56412;53.148;8.204;2022-07-10T05:20:37;102355.78;;;18.27;50.68
61287;BME280;56412;53.148;8.204;2022-07-10T05:23:06;102352.63;;;18.22;50.77
61287;BME280;56412;53.148;8.204;2022-07-10T05:25:32;102350.50;;;18.81;49.47
61287;BME280;56412;53.148;8.204;2022-07-10T05:27:57;102353.78;;;18.84;49.01
61287;BME280;56412;53.148;8.204;2022-07-10T05:30:23;102349.06;;;18.77;49.66
61287;BME280;56412;53.148;8.204;2022-07-10T05:32:48;102355.56;;;18.57;49.69
61287;BME280;56412;53.148;8.204;2022-07-10T05:35:13;102357.72;;;17.96;51.22
61287;BME280;56412;53.148;8.204;2022-07-10T05:37:40;102360.38;;;17.82;51.76
61287;BME280;56412;53.148;8.204;2022-07-10T05:40:06;102368.91;;;18.27;50.61
61287;BME280;56412;53.148;8.204;2022-07-10T05:42:31;102375.25;;;17.96;52.15
61287;BME280;56412;53.148;8.204;2022-07-10T05:44:57;102371.31;;;17.45;54.18
61287;BME280;56412;53.148;8.204;2022-07-10T05:47:22;102373.63;;;16.77;57.76
61287;BME280;56412;53.148;8.204;2022-07-10T05:49:47;102370.47;;;16.86;57.40
61287;BME280;56412;53.148;8.204;2022-07-10T05:52:13;102370.91;;;17.23;56.89
61287;BME280;56412;53.148;8.204;2022-07-10T05:54:38;102369.63;;;16.70;58.53
61287;BME280;56412;53.148;8.204;2022-07-10T05:57:04;102371.22;;;17.02;57.20
61287;BME280;56412;53.148;8.204;2022-07-10T05:59:32;102365.97;;;17.18;56.84
61287;BME280;56412;53.148;8.204;2022-07-10T06:01:58;102369.31;;;17.06;58.02
61287;BME280;56412;53.148;8.204;2022-07-10T06:04:23;102372.31;;;17.29;57.30
61287;BME280;56412;53.148;8.204;2022-07-10T06:06:49;102368.00;;;17.70;55.94
61287;BME280;56412;53.148;8.204;2022-07-10T06:09:14;102375.25;;;17.96;55.50
61287;BME280;56412;53.148;8.204;2022-07-10T06:11:39;102370.47;;;18.29;53.64
61287;BME280;56412;53.148;8.204;2022-07-10T06:14:06;102373.09;;;18.29;53.47
61287;BME280;56412;53.148;8.204;2022-07-10T06:16:32;102372.84;;;18.47;53.03
61287;BME280;56412;53.148;8.204;2022-07-10T06:18:57;102374.81;;;18.70;52.90
61287;BME280;56412;53.148;8.204;2022-07-10T06:21:22;102372.44;;;18.53;52.41
61287;BME280;56412;53.148;8.204;2022-07-10T06:23:48;102380.13;;;18.83;51.67
61287;BME280;56412;53.148;8.204;2022-07-10T06:26:13;102382.41;;;18.75;52.42
61287;BME280;56412;53.148;8.204;2022-07-10T06:28:38;102374.72;;;19.37;50.87
61287;BME280;56412;53.148;8.204;2022-07-10T06:31:07;102381.97;;;20.22;48.80
61287;BME280;56412;53.148;8.204;2022-07-10T06:33:32;102377.22;;;19.90;49.01
61287;BME280;56412;53.148;8.204;2022-07-10T06:35:58;102385.41;;;19.85;48.81
61287;BME280;56412;53.148;8.204;2022-07-10T06:38:23;102380.44;;;20.06;48.24
61287;BME280;56412;53.148;8.204;2022-07-10T06:40:48;102387.50;;;19.93;48.17
61287;BME280;56412;53.148;8.204;2022-07-10T06:43:14;102388.50;;;19.28;49.47
61287;BME280;56412;53.148;8.204;2022-07-10T06:45:40;102386.66;;;18.90;49.10
61287;BME280;56412;53.148;8.204;2022-07-10T06:48:06;102382.16;;;18.92;50.10
61287;BME280;56412;53.148;8.204;2022-07-10T06:50:31;102379.25;;;19.48;48.86
61287;BME280;56412;53.148;8.204;2022-07-10T06:52:57;102376.09;;;19.68;47.67
61287;BME280;56412;53.148;8.204;2022-07-10T06:55:23;102369.41;;;20.49;45.95
61287;BME280;56412;53.148;8.204;2022-07-10T06:57:50;102375.53;;;19.89;45.55
61287;BME280;56412;53.148;8.204;2022-07-10T07:00:15;102374.53;;;19.66;47.07
61287;BME280;56412;53.148;8.204;2022-07-10T07:02:40;102371.75;;;20.17;45.68
61287;BME280;56412;53.148;8.204;2022-07-10T07:05:06;102376.09;;;20.42;45.60
61287;BME280;56412;53.148;8.204;2022-07-10T07:07:32;102369.63;;;19.98;45.93
61287;BME280;56412;53.148;8.204;2022-07-10T07:09:57;102377.31;;;19.50;47.14
61287;BME280;56412;53.148;8.204;2022-07-10T07:12:23;102377.84;;;19.55;47.88
61287;BME280;56412;53.148;8.204;2022-07-10T07:14:48;102381.84;;;19.61;46.95
61287;BME280;56412;53.148;8.204;2022-07-10T07:17:14;102374.59;;;20.86;44.82
61287;BME280;56412;53.148;8.204;2022-07-10T07:19:46;102372.16;;;21.29;43.67
61287;BME280;56412;53.148;8.204;2022-07-10T07:22:30;102371.84;;;21.45;41.81
61287;BME280;56412;53.148;8.204;2022-07-10T07:25:14;102366.66;;;20.51;43.17
61287;BME280;56412;53.148;8.204;2022-07-10T07:27:39;102377.72;;;20.56;44.05
61287;BME280;56412;53.148;8.204;2022-07-10T07:30:09;102376.09;;;20.66;43.41
61287;BME280;56412;53.148;8.204;2022-07-10T07:32:36;102379.78;;;20.99;42.58
61287;BME280;56412;53.148;8.204;2022-07-10T07:35:02;102377.47;;;21.63;41.25
61287;BME280;56412;53.148;8.204;2022-07-10T07:38:02;102372.59;;;21.47;41.15
61287;BME280;56412;53.148;8.204;2022-07-10T07:40:20;102381.31;;;21.48;41.58
61287;BME280;56412;53.148;8.204;2022-07-10T07:42:50;102387.69;;;21.57;41.31
61287;BME280;56412;53.148;8.204;2022-07-10T07:45:16;102393.16;;;21.65;41.72
61287;BME280;56412;53.148;8.204;2022-07-10T07:47:43;102390.84;;;21.26;42.17
61287;BME280;56412;53.148;8.204;2022-07-10T07:50:21;102385.09;;;21.21;41.47
61287;BME280;56412;53.148;8.204;2022-07-10T07:52:51;102386.09;;;21.43;41.96
61287;BME280;56412;53.148;8.204;2022-07-10T07:55:18;102387.88;;;21.31;42.41
61287;BME280;56412;53.148;8.204;2022-07-10T07:57:44;102378.38;;;21.28;42.07
61287;BME280;56412;53.148;8.204;2022-07-10T08:00:11;102379.16;;;21.75;40.63
61287;BME280;56412;53.148;8.204;2022-07-10T08:02:37;102373.81;;;23.06;38.72
61287;BME280;56412;53.148;8.204;2022-07-10T08:05:03;102370.25;;;23.17;38.94
61287;BME280;56412;53.148;8.204;2022-07-10T08:07:33;102370.53;;;23.75;37.20
61287;BME280;56412;53.148;8.204;2022-07-10T08:10:03;102362.81;;;23.62;36.78
61287;BME280;56412;53.148;8.204;2022-07-10T08:12:29;102363.88;;;23.50;36.23
61287;BME280;56412;53.148;8.204;2022-07-10T08:14:54;102363.16;;;23.17;35.98
61287;BME280;56412;53.148;8.204;2022-07-10T08:17:20;102359.34;;;23.31;36.74
61287;BME280;56412;53.148;8.204;2022-07-10T08:19:46;102351.19;;;23.44;35.59
61287;BME280;56412;53.148;8.204;2022-07-10T08:22:11;102353.59;;;23.26;35.13
61287;BME280;56412;53.148;8.204;2022-07-10T08:24:37;102357.53;;;23.31;35.55
61287;BME280;56412;53.148;8.204;2022-07-10T08:27:02;102350.06;;;22.53;36.22
61287;BME280;56412;53.148;8.204;2022-07-10T08:29:27;102344.75;;;23.37;35.92
61287;BME280;56412;53.148;8.204;2022-07-10T08:31:53;102337.00;;;23.85;34.80
61287;BME280;56412;53.148;8.204;2022-07-10T08:34:18;102344.56;;;23.59;35.04
61287;BME280;56412;53.148;8.204;2022-07-10T08:36:43;102344.47;;;22.88;35.78
61287;BME280;56412;53.148;8.204;2022-07-10T08:39:09;102353.66;;;22.52;36.21
61287;BME280;56412;53.148;8.204;2022-07-10T08:41:34;102353.84;;;22.39;36.98
61287;BME280;56412;53.148;8.204;2022-07-10T08:44:00;102359.03;;;22.29;37.00
61287;BME280;56412;53.148;8.204;2022-07-10T08:46:25;102359.69;;;22.75;36.89
61287;BME280;56412;53.148;8.204;2022-07-10T08:48:53;102357.75;;;22.77;37.50
61287;BME280;56412;53.148;8.204;2022-07-10T08:51:22;102354.31;;;21.89;38.65
61287;BME280;56412;53.148;8.204;2022-07-10T08:53:55;102361.81;;;20.93;40.38
61287;BME280;56412;53.148;8.204;2022-07-10T08:56:22;102368.44;;;20.02;43.54
61287;BME280;56412;53.148;8.204;2022-07-10T08:58:47;102363.34;;;19.62;45.67
61287;BME280;56412;53.148;8.204;2022-07-10T09:01:16;102380.91;;;18.71;48.46
61287;BME280;56412;53.148;8.204;2022-07-10T09:03:47;102372.59;;;19.55;46.57
61287;BME280;56412;53.148;8.204;2022-07-10T09:06:13;102382.78;;;19.85;45.20
61287;BME280;56412;53.148;8.204;2022-07-10T09:08:38;102379.97;;;20.84;42.69
61287;BME280;56412;53.148;8.204;2022-07-10T09:11:26;102386.78;;;22.12;39.64
61287;BME280;56412;53.148;8.204;2022-07-10T09:13:54;102380.09;;;22.52;39.25
61287;BME280;56412;53.148;8.204;2022-07-10T09:16:26;102363.09;;;22.44;38.72
61287;BME280;56412;53.148;8.204;2022-07-10T09:18:58;102369.44;;;23.16;37.55
61287;BME280;56412;53.148;8.204;2022-07-10T09:21:40;102366.84;;;23.56;36.48
61287;BME280;56412;53.148;8.204;2022-07-10T09:24:07;102364.16;;;23.16;36.89
61287;BME280;56412;53.148;8.204;2022-07-10T09:26:33;102366.06;;;23.14;36.62
61287;BME280;56412;53.148;8.204;2022-07-10T09:29:05;102359.38;;;23.10;36.44
61287;BME280;56412;53.148;8.204;2022-07-10T09:31:48;102356.97;;;23.28;35.76
61287;BME280;56412;53.148;8.204;2022-07-10T09:34:15;102360.72;;;23.56;35.43
61287;BME280;56412;53.148;8.204;2022-07-10T09:36:40;102367.41;;;23.29;35.66
61287;BME280;56412;53.148;8.204;2022-07-10T09:39:05;102367.63;;;22.96;36.89
61287;BME280;56412;53.148;8.204;2022-07-10T09:41:31;102356.81;;;23.60;35.80
61287;BME280;56412;53.148;8.204;2022-07-10T09:44:01;102369.13;;;23.40;36.09
61287;BME280;56412;53.148;8.204;2022-07-10T09:46:31;102370.00;;;21.91;38.58
61287;BME280;56412;53.148;8.204;2022-07-10T09:49:12;102372.81;;;21.55;38.90
61287;BME280;56412;53.148;8.204;2022-07-10T09:51:42;102381.13;;;22.06;38.56
61287;BME280;56412;53.148;8.204;2022-07-10T09:54:09;102380.28;;;21.26;40.51
61287;BME280;56412;53.148;8.204;2022-07-10T09:56:39;102378.97;;;21.09;41.14
61287;BME280;56412;53.148;8.204;2022-07-10T09:59:09;102374.94;;;21.73;40.67
61287;BME280;56412;53.148;8.204;2022-07-10T10:01:42;102374.06;;;23.54;37.28
61287;BME280;56412;53.148;8.204;2022-07-10T10:04:12;102376.22;;;25.73;33.90
61287;BME280;56412;53.148;8.204;2022-07-10T10:06:38;102367.25;;;25.19;34.44
61287;BME280;56412;53.148;8.204;2022-07-10T10:11:52;102371.44;;;25.02;34.42
61287;BME280;56412;53.148;8.204;2022-07-10T10:14:23;102378.16;;;23.38;36.17
61287;BME280;56412;53.148;8.204;2022-07-10T10:16:49;102374.03;;;23.45;36.67
61287;BME280;56412;53.148;8.204;2022-07-10T10:19:15;102370.88;;;21.91;39.02
61287;BME280;56412;53.148;8.204;2022-07-10T10:22:00;102380.50;;;21.47;41.06
61287;BME280;56412;53.148;8.204;2022-07-10T10:24:26;102380.63;;;22.12;40.08
61287;BME280;56412;53.148;8.204;2022-07-10T10:26:56;102389.41;;;22.23;40.61
61287;BME280;56412;53.148;8.204;2022-07-10T10:29:21;102387.81;;;22.32;40.64
61287;BME280;56412;53.148;8.204;2022-07-10T10:31:47;102384.19;;;21.90;40.93
61287;BME280;56412;53.148;8.204;2022-07-10T10:34:12;102383.00;;;22.37;40.50
61287;BME280;56412;53.148;8.204;2022-07-10T10:39:10;102377.16;;;23.08;39.69
61287;BME280;56412;53.148;8.204;2022-07-10T10:41:42;102375.69;;;21.52;42.66
61287;BME280;56412;53.148;8.204;2022-07-10T10:49:18;102381.72;;;21.08;44.12
61287;BME280;56412;53.148;8.204;2022-07-10T10:54:34;102377.28;;;23.27;40.12
61287;BME280;56412;53.148;8.204;2022-07-10T10:57:22;102378.72;;;24.12;38.17
61287;BME280;56412;53.148;8.204;2022-07-10T10:59:49;102378.84;;;24.20;37.99
61287;BME280;56412;53.148;8.204;2022-07-10T11:04:49;102367.16;;;24.33;37.97
61287;BME280;56412;53.148;8.204;2022-07-10T11:15:43;102357.69;;;24.50;37.43
61287;BME280;56412;53.148;8.204;2022-07-10T11:18:12;102357.88;;;23.17;39.87
61287;BME280;56412;53.148;8.204;2022-07-10T11:20:39;102370.00;;;23.81;38.67
61287;BME280;56412;53.148;8.204;2022-07-10T11:26:11;102358.41;;;23.11;40.49
61287;BME280;56412;53.148;8.204;2022-07-10T11:28:50;102357.25;;;23.04;40.23
61287;BME280;56412;53.148;8.204;2022-07-10T11:31:19;102360.75;;;21.18;44.56
61287;BME280;56412;53.148;8.204;2022-07-10T11:33:47;102361.41;;;21.55;43.67
61287;BME280;56412;53.148;8.204;2022-07-10T11:36:20;102368.75;;;20.94;45.35
61287;BME280;56412;53.148;8.204;2022-07-10T11:38:55;102373.69;;;20.39;48.10
61287;BME280;56412;53.148;8.204;2022-07-10T11:41:25;102370.41;;;19.49;50.55
61287;BME280;56412;53.148;8.204;2022-07-10T11:43:52;102370.41;;;19.23;51.85
61287;BME280;56412;53.148;8.204;2022-07-10T11:46:20;102365.41;;;20.56;48.13
61287;BME280;56412;53.148;8.204;2022-07-10T11:48:46;102375.34;;;21.57;46.03
61287;BME280;56412;53.148;8.204;2022-07-10T11:51:21;102375.34;;;22.34;43.63
61287;BME280;56412;53.148;8.204;2022-07-10T11:53:58;102367.69;;;24.26;39.88
61287;BME280;56412;53.148;8.204;2022-07-10T11:56:28;102365.38;;;24.62;37.78
61287;BME280;56412;53.148;8.204;2022-07-10T11:59:01;102367.44;;;24.78;37.30
61287;BME280;56412;53.148;8.204;2022-07-10T12:01:52;102368.00;;;25.66;35.81
61287;BME280;56412;53.148;8.204;2022-07-10T12:04:18;102355.06;;;24.59;37.05
61287;BME280;56412;53.148;8.204;2022-07-10T12:06:45;102366.19;;;24.34;36.87
61287;BME280;56412;53.148;8.204;2022-07-10T12:09:12;102363.84;;;23.71;38.52
61287;BME280;56412;53.148;8.204;2022-07-10T12:11:39;102365.16;;;23.96;38.07
61287;BME280;56412;53.148;8.204;2022-07-10T12:14:16;102374.31;;;22.79;39.48
61287;BME280;56412;53.148;8.204;2022-07-10T12:16:44;102384.72;;;21.26;43.20
61287;BME280;56412;53.148;8.204;2022-07-10T12:19:12;102378.28;;;21.19;43.62
61287;BME280;56412;53.148;8.204;2022-07-10T12:21:41;102385.75;;;21.70;43.23
61287;BME280;56412;53.148;8.204;2022-07-10T12:24:07;102381.25;;;22.27;42.55
61287;BME280;56412;53.148;8.204;2022-07-10T12:26:37;102384.72;;;22.38;41.66
61287;BME280;56412;53.148;8.204;2022-07-10T12:29:06;102385.38;;;21.86;43.14
61287;BME280;56412;53.148;8.204;2022-07-10T12:31:46;102387.78;;;21.44;44.14
61287;BME280;56412;53.148;8.204;2022-07-10T12:34:14;102390.66;;;21.86;43.27
61287;BME280;56412;53.148;8.204;2022-07-10T12:36:43;102388.47;;;21.35;44.86
61287;BME280;56412;53.148;8.204;2022-07-10T12:39:19;102387.38;;;22.16;42.88
61287;BME280;56412;53.148;8.204;2022-07-10T12:41:55;102389.00;;;22.39;42.40
61287;BME280;56412;53.148;8.204;2022-07-10T12:47:05;102390.44;;;20.97;46.66
61287;BME280;56412;53.148;8.204;2022-07-10T12:49:54;102394.84;;;20.85;47.25
61287;BME280;56412;53.148;8.204;2022-07-10T12:54:49;102385.22;;;21.31;46.03
61287;BME280;56412;53.148;8.204;2022-07-10T12:57:29;102382.44;;;22.11;45.01
61287;BME280;56412;53.148;8.204;2022-07-10T13:00:02;102387.31;;;23.64;41.78
61287;BME280;56412;53.148;8.204;2022-07-10T13:02:29;102381.41;;;23.72;40.78
61287;BME280;56412;53.148;8.204;2022-07-10T13:04:55;102380.66;;;24.98;37.95
61287;BME280;56412;53.148;8.204;2022-07-10T13:07:31;102368.66;;;29.35;31.53
61287;BME280;56412;53.148;8.204;2022-07-10T13:10:00;102363.31;;;33.06;25.83
61287;BME280;56412;53.148;8.204;2022-07-10T13:12:35;102368.66;;;35.47;21.19
61287;BME280;56412;53.148;8.204;2022-07-10T13:15:02;102365.34;;;34.80;22.91
61287;BME280;56412;53.148;8.204;2022-07-10T13:17:28;102362.69;;;37.69;20.08
61287;BME280;56412;53.148;8.204;2022-07-10T13:19:53;102364.59;;;37.80;19.01
61287;BME280;56412;53.148;8.204;2022-07-10T13:22:18;102360.28;;;33.16;23.62
61287;BME280;56412;53.148;8.204;2022-07-10T13:24:44;102362.09;;;31.52;25.18